Chisholm-hibbing, MN

5:14 PM CDT on September 18, 2014 (GMT -0500)
Eveleth-Virginia Municipal | Change Station
CLOSE
Current Station
Airport
Location: Eveleth,
Elevation: 1378 ft
Nearby Weather Stations

Elev 1378 ft 47.43 °N, 92.50 °W | Updated 23 minutes ago

Clear
Clear
55 °F
Feels Like 55 °F
N
12
Wind Variable Wind from South

Today
High -- | Low -- °F
--% Chance of Precip.
Yesterday
High -- | Low -- °F
Precip. -- in
6:52 AM 7:17 PM
Waning Crescent, 24% visible
Pressure 30.04 in
Visibility 10.0 miles
Clouds Scattered Clouds 4300 ft
Scattered Clouds 4900 ft
Dew Point 46 °F
Humidity 72%
Rainfall 0.00 in
Snow Depth Not available.
UV 2 out of 12
Pollen 2.10 out of 12
Air Quality Not available.
Flu Activity Not available.
METAR KEVM 182151Z AUTO 17010KT 10SM SCT043 SCT049 13/08 A3004 RMK AO2

More Conditions Fewer Conditions

Pressure 30.04 in
Visibility 10.0 miles
Clouds Scattered Clouds 4300 ft
Scattered Clouds 4900 ft
Dew Point 46 °F
Humidity 72%
Rainfall 0.00 in
Snow Depth Not available.
UV 2 out of 12
Pollen 2.10 out of 12
Air Quality Not available.
Flu Activity Not available.
METAR KEVM 182151Z AUTO 17010KT 10SM SCT043 SCT049 13/08 A3004 RMK AO2

More Conditions Fewer Conditions

10-Day Weather Forecast

Almanac

Astronomy

Sep. 18, 2014 Rise Set
Actual Time 6:52 AM CDT 7:17 PM CDT
Civil Twilight 6:22 AM CDT 7:47 PM CDT
Nautical Twilight 5:45 AM CDT 8:24 PM CDT
Astronomical Twilight 5:07 AM CDT 9:01 PM CDT
Moon 1:29 AM CDT 4:23 PM CDT
Length of Visible Light 13h 25m
Length of Day
12h 24m
Tomorrow will be 3m 23s shorter.
Waning Crescent, 24% of the Moon is Illuminated
Today
Waning Crescent
Sep 24
New
Oct 1
First Quarter
Oct 8
Full
Oct 15
Last Quarter

Today's Extremes

State Highs State Lows

Community

WunderPhotos

Upload Photos

1,754,457 photos uploaded!

WunderBlogs® & News

Nearby

Snow Depth

Station Depth Elevation
No new snow has been reported.

Earthquake Activity

City Distance Mag. Time & Date
No recent earthquake activity has been reported nearby.
Minimum magnitude displayed is 2.5.

Coastal Water Temperatures

Place Temperature
No Stations Reporting

Nearby Weather Stations